sensor_id;sensor_type;location;lat;lon;timestamp;temperature;humidity
5850;DHT22;2951;47.712;9.400;2022-10-17T00:00:11;11.60;99.90
5850;DHT22;2951;47.712;9.400;2022-10-17T00:02:38;11.40;99.90
5850;DHT22;2951;47.712;9.400;2022-10-17T00:05:04;11.40;99.90
5850;DHT22;2951;47.712;9.400;2022-10-17T00:07:31;11.40;99.90
5850;DHT22;2951;47.712;9.400;2022-10-17T00:09:58;11.50;99.90
5850;DHT22;2951;47.712;9.400;2022-10-17T00:12:24;11.50;99.90
5850;DHT22;2951;47.712;9.400;2022-10-17T00:14:51;11.50;99.90
5850;DHT22;2951;47.712;9.400;2022-10-17T00:17:18;11.50;99.90
5850;DHT22;2951;47.712;9.400;2022-10-17T00:19:44;11.50;99.90
5850;DHT22;2951;47.712;9.400;2022-10-17T00:22:11;11.50;99.90
5850;DHT22;2951;47.712;9.400;2022-10-17T00:24:38;11.50;99.90
5850;DHT22;2951;47.712;9.400;2022-10-17T00:27:04;11.40;99.90
5850;DHT22;2951;47.712;9.400;2022-10-17T00:29:31;11.40;99.90
5850;DHT22;2951;47.712;9.400;2022-10-17T00:31:58;11.40;99.90
5850;DHT22;2951;47.712;9.400;2022-10-17T00:34:24;11.40;99.90
5850;DHT22;2951;47.712;9.400;2022-10-17T00:36:51;11.40;99.90
5850;DHT22;2951;47.712;9.400;2022-10-17T00:39:17;11.40;99.90
5850;DHT22;2951;47.712;9.400;2022-10-17T00:41:44;11.40;99.90
5850;DHT22;2951;47.712;9.400;2022-10-17T00:46:56;11.40;99.90
5850;DHT22;2951;47.712;9.400;2022-10-17T00:49:25;11.20;99.90
5850;DHT22;2951;47.712;9.400;2022-10-17T00:51:53;11.20;99.90
5850;DHT22;2951;47.712;9.400;2022-10-17T00:54:22;11.30;99.90
5850;DHT22;2951;47.712;9.400;2022-10-17T00:56:49;11.20;99.90
5850;DHT22;2951;47.712;9.400;2022-10-17T00:59:16;11.20;99.90
5850;DHT22;2951;47.712;9.400;2022-10-17T01:01:47;11.20;99.90
5850;DHT22;2951;47.712;9.400;2022-10-17T01:04:17;11.10;99.90
5850;DHT22;2951;47.712;9.400;2022-10-17T01:06:43;10.90;99.90
5850;DHT22;2951;47.712;9.400;2022-10-17T01:09:10;10.80;99.90
5850;DHT22;2951;47.712;9.400;2022-10-17T01:16:57;10.90;99.90
5850;DHT22;2951;47.712;9.400;2022-10-17T01:19:47;10.80;99.90
5850;DHT22;2951;47.712;9.400;2022-10-17T01:22:26;10.80;99.90
5850;DHT22;2951;47.712;9.400;2022-10-17T01:30:17;10.90;99.90
5850;DHT22;2951;47.712;9.400;2022-10-17T01:32:55;10.90;99.90
5850;DHT22;2951;47.712;9.400;2022-10-17T01:38:03;10.90;99.90
5850;DHT22;2951;47.712;9.400;2022-10-17T01:40:35;10.90;99.90
5850;DHT22;2951;47.712;9.400;2022-10-17T01:43:04;10.80;99.90
5850;DHT22;2951;47.712;9.400;2022-10-17T01:45:36;10.90;99.90
5850;DHT22;2951;47.712;9.400;2022-10-17T01:48:08;10.90;99.90
5850;DHT22;2951;47.712;9.400;2022-10-17T01:50:38;10.80;99.90
5850;DHT22;2951;47.712;9.400;2022-10-17T01:53:08;10.80;99.90
5850;DHT22;2951;47.712;9.400;2022-10-17T01:55:38;10.80;99.90
5850;DHT22;2951;47.712;9.400;2022-10-17T01:58:08;10.80;99.90
5850;DHT22;2951;47.712;9.400;2022-10-17T02:00:36;10.80;99.90
5850;DHT22;2951;47.712;9.400;2022-10-17T02:03:05;10.90;99.90
5850;DHT22;2951;47.712;9.400;2022-10-17T02:05:35;10.90;99.90
5850;DHT22;2951;47.712;9.400;2022-10-17T02:08:03;10.60;99.90
5850;DHT22;2951;47.712;9.400;2022-10-17T02:10:32;10.50;99.90
5850;DHT22;2951;47.712;9.400;2022-10-17T02:21:00;10.60;99.90
5850;DHT22;2951;47.712;9.400;2022-10-17T02:26:11;10.60;99.90
5850;DHT22;2951;47.712;9.400;2022-10-17T02:31:09;10.60;99.90
5850;DHT22;2951;47.712;9.400;2022-10-17T02:33:44;10.60;99.90
5850;DHT22;2951;47.712;9.400;2022-10-17T02:36:14;10.50;99.90
5850;DHT22;2951;47.712;9.400;2022-10-17T02:38:42;10.50;99.90
5850;DHT22;2951;47.712;9.400;2022-10-17T02:41:10;10.40;99.90
5850;DHT22;2951;47.712;9.400;2022-10-17T02:43:38;10.50;99.90
5850;DHT22;2951;47.712;9.400;2022-10-17T02:46:05;10.40;99.90
5850;DHT22;2951;47.712;9.400;2022-10-17T02:48:35;10.40;99.90
5850;DHT22;2951;47.712;9.400;2022-10-17T02:53:38;10.50;99.90
5850;DHT22;2951;47.712;9.400;2022-10-17T02:56:09;10.60;99.90
5850;DHT22;2951;47.712;9.400;2022-10-17T02:58:38;10.50;99.90
5850;DHT22;2951;47.712;9.400;2022-10-17T03:01:05;10.50;99.90
5850;DHT22;2951;47.712;9.400;2022-10-17T03:03:32;10.50;99.90
5850;DHT22;2951;47.712;9.400;2022-10-17T03:05:59;10.40;99.90
5850;DHT22;2951;47.712;9.400;2022-10-17T03:08:26;10.40;99.90
5850;DHT22;2951;47.712;9.400;2022-10-17T03:10:52;10.40;99.90
5850;DHT22;2951;47.712;9.400;2022-10-17T03:13:19;10.30;99.90
5850;DHT22;2951;47.712;9.400;2022-10-17T03:15:46;10.30;99.90
5850;DHT22;2951;47.712;9.400;2022-10-17T03:18:13;10.20;99.90
5850;DHT22;2951;47.712;9.400;2022-10-17T03:20:39;10.00;99.90
5850;DHT22;2951;47.712;9.400;2022-10-17T03:23:06;9.90;99.90
5850;DHT22;2951;47.712;9.400;2022-10-17T03:25:33;10.00;99.90
5850;DHT22;2951;47.712;9.400;2022-10-17T03:27:59;10.10;99.90
5850;DHT22;2951;47.712;9.400;2022-10-17T03:30:27;10.10;99.90
5850;DHT22;2951;47.712;9.400;2022-10-17T03:32:56;10.10;99.90
5850;DHT22;2951;47.712;9.400;2022-10-17T03:35:22;10.20;99.90
5850;DHT22;2951;47.712;9.400;2022-10-17T03:37:49;10.20;99.90
5850;DHT22;2951;47.712;9.400;2022-10-17T03:40:16;10.00;99.90
5850;DHT22;2951;47.712;9.400;2022-10-17T03:42:42;10.00;99.90
5850;DHT22;2951;47.712;9.400;2022-10-17T03:45:09;10.10;99.90
5850;DHT22;2951;47.712;9.400;2022-10-17T03:47:36;10.10;99.90
5850;DHT22;2951;47.712;9.400;2022-10-17T03:50:03;10.20;99.90
5850;DHT22;2951;47.712;9.400;2022-10-17T03:52:29;10.00;99.90
5850;DHT22;2951;47.712;9.400;2022-10-17T03:54:56;10.00;99.90
5850;DHT22;2951;47.712;9.400;2022-10-17T03:57:23;9.90;99.90
5850;DHT22;2951;47.712;9.400;2022-10-17T03:59:49;9.80;99.90
5850;DHT22;2951;47.712;9.400;2022-10-17T04:02:17;9.80;99.90
5850;DHT22;2951;47.712;9.400;2022-10-17T04:04:44;9.90;99.90
5850;DHT22;2951;47.712;9.400;2022-10-17T04:07:11;9.90;99.90
5850;DHT22;2951;47.712;9.400;2022-10-17T04:09:37;9.90;99.90
5850;DHT22;2951;47.712;9.400;2022-10-17T04:12:04;9.90;99.90
5850;DHT22;2951;47.712;9.400;2022-10-17T04:14:30;9.90;99.90
5850;DHT22;2951;47.712;9.400;2022-10-17T04:16:57;9.90;99.90
5850;DHT22;2951;47.712;9.400;2022-10-17T04:19:24;9.80;99.90
5850;DHT22;2951;47.712;9.400;2022-10-17T04:21:51;9.70;99.90
5850;DHT22;2951;47.712;9.400;2022-10-17T04:24:18;9.60;99.90
5850;DHT22;2951;47.712;9.400;2022-10-17T04:26:45;9.70;99.90
5850;DHT22;2951;47.712;9.400;2022-10-17T04:29:14;9.70;99.90
5850;DHT22;2951;47.712;9.400;2022-10-17T04:31:41;9.70;99.90
5850;DHT22;2951;47.712;9.400;2022-10-17T04:34:07;9.70;99.90
5850;DHT22;2951;47.712;9.400;2022-10-17T04:36:34;9.70;99.90
5850;DHT22;2951;47.712;9.400;2022-10-17T04:39:01;9.60;99.90
5850;DHT22;2951;47.712;9.400;2022-10-17T04:41:30;9.60;99.90
5850;DHT22;2951;47.712;9.400;2022-10-17T04:43:57;9.50;99.90
5850;DHT22;2951;47.712;9.400;2022-10-17T04:46:24;9.60;99.90
5850;DHT22;2951;47.712;9.400;2022-10-17T04:48:50;9.60;99.90
5850;DHT22;2951;47.712;9.400;2022-10-17T04:51:17;9.60;99.90
5850;DHT22;2951;47.712;9.400;2022-10-17T04:53:47;9.60;99.90
5850;DHT22;2951;47.712;9.400;2022-10-17T04:56:14;9.60;99.90
5850;DHT22;2951;47.712;9.400;2022-10-17T04:58:42;9.60;99.90
5850;DHT22;2951;47.712;9.400;2022-10-17T05:01:11;9.60;99.90
5850;DHT22;2951;47.712;9.400;2022-10-17T05:03:38;9.50;99.90
5850;DHT22;2951;47.712;9.400;2022-10-17T05:06:05;9.50;99.90
5850;DHT22;2951;47.712;9.400;2022-10-17T05:08:33;9.40;99.90
5850;DHT22;2951;47.712;9.400;2022-10-17T05:10:59;9.40;99.90
5850;DHT22;2951;47.712;9.400;2022-10-17T05:13:26;9.40;99.90
5850;DHT22;2951;47.712;9.400;2022-10-17T05:15:56;9.30;99.90
5850;DHT22;2951;47.712;9.400;2022-10-17T05:18:23;9.30;99.90
5850;DHT22;2951;47.712;9.400;2022-10-17T05:20:50;9.50;99.90
5850;DHT22;2951;47.712;9.400;2022-10-17T05:23:16;9.40;99.90
5850;DHT22;2951;47.712;9.400;2022-10-17T05:25:43;9.20;99.90
5850;DHT22;2951;47.712;9.400;2022-10-17T05:28:09;9.20;99.90
5850;DHT22;2951;47.712;9.400;2022-10-17T05:30:36;9.10;99.90
5850;DHT22;2951;47.712;9.400;2022-10-17T05:33:03;9.20;99.90
5850;DHT22;2951;47.712;9.400;2022-10-17T05:35:30;9.30;99.90
5850;DHT22;2951;47.712;9.400;2022-10-17T05:37:56;9.40;99.90
5850;DHT22;2951;47.712;9.400;2022-10-17T05:40:23;9.40;99.90
5850;DHT22;2951;47.712;9.400;2022-10-17T05:42:50;9.30;99.90
5850;DHT22;2951;47.712;9.400;2022-10-17T05:45:16;9.20;99.90
5850;DHT22;2951;47.712;9.400;2022-10-17T05:47:43;9.10;99.90
5850;DHT22;2951;47.712;9.400;2022-10-17T05:50:10;9.10;99.90
5850;DHT22;2951;47.712;9.400;2022-10-17T05:52:36;9.10;99.90
5850;DHT22;2951;47.712;9.400;2022-10-17T05:55:04;9.30;99.90
5850;DHT22;2951;47.712;9.400;2022-10-17T05:57:31;9.30;99.90
5850;DHT22;2951;47.712;9.400;2022-10-17T05:59:57;9.30;99.90
5850;DHT22;2951;47.712;9.400;2022-10-17T06:02:24;9.40;99.90
5850;DHT22;2951;47.712;9.400;2022-10-17T06:04:51;9.40;99.90
5850;DHT22;2951;47.712;9.400;2022-10-17T06:07:17;9.60;99.90
5850;DHT22;2951;47.712;9.400;2022-10-17T06:09:44;9.60;99.90
5850;DHT22;2951;47.712;9.400;2022-10-17T06:12:11;9.70;99.90
5850;DHT22;2951;47.712;9.400;2022-10-17T06:14:37;9.70;99.90
5850;DHT22;2951;47.712;9.400;2022-10-17T06:17:04;9.50;99.90
5850;DHT22;2951;47.712;9.400;2022-10-17T06:19:31;9.40;99.90
5850;DHT22;2951;47.712;9.400;2022-10-17T06:21:57;9.30;99.90
5850;DHT22;2951;47.712;9.400;2022-10-17T06:24:24;9.30;99.90
5850;DHT22;2951;47.712;9.400;2022-10-17T06:26:51;9.30;99.90
5850;DHT22;2951;47.712;9.400;2022-10-17T06:29:18;9.40;99.90
5850;DHT22;2951;47.712;9.400;2022-10-17T06:31:44;9.60;99.90
5850;DHT22;2951;47.712;9.400;2022-10-17T06:34:11;9.70;99.90
5850;DHT22;2951;47.712;9.400;2022-10-17T06:36:38;9.80;99.90
5850;DHT22;2951;47.712;9.400;2022-10-17T06:39:04;10.00;99.90
5850;DHT22;2951;47.712;9.400;2022-10-17T06:41:31;10.10;99.90
5850;DHT22;2951;47.712;9.400;2022-10-17T06:43:58;10.20;99.90
5850;DHT22;2951;47.712;9.400;2022-10-17T06:46:27;10.30;99.90
5850;DHT22;2951;47.712;9.400;2022-10-17T06:48:55;10.30;99.90
5850;DHT22;2951;47.712;9.400;2022-10-17T06:51:21;10.40;99.90
5850;DHT22;2951;47.712;9.400;2022-10-17T06:53:48;10.40;99.90
5850;DHT22;2951;47.712;9.400;2022-10-17T06:56:15;10.30;99.90
5850;DHT22;2951;47.712;9.400;2022-10-17T06:58:41;10.30;99.90
5850;DHT22;2951;47.712;9.400;2022-10-17T07:01:09;10.30;99.90
5850;DHT22;2951;47.712;9.400;2022-10-17T07:03:36;10.30;99.90
5850;DHT22;2951;47.712;9.400;2022-10-17T07:06:03;10.50;99.90
5850;DHT22;2951;47.712;9.400;2022-10-17T07:08:30;10.40;99.90
5850;DHT22;2951;47.712;9.400;2022-10-17T07:10:57;10.40;99.90
5850;DHT22;2951;47.712;9.400;2022-10-17T07:13:24;10.60;99.90
5850;DHT22;2951;47.712;9.400;2022-10-17T07:15:51;10.70;99.90
5850;DHT22;2951;47.712;9.400;2022-10-17T07:18:18;10.80;99.90
5850;DHT22;2951;47.712;9.400;2022-10-17T07:20:51;10.90;99.90
5850;DHT22;2951;47.712;9.400;2022-10-17T07:23:17;11.00;99.90
5850;DHT22;2951;47.712;9.400;2022-10-17T07:25:44;11.00;99.90
5850;DHT22;2951;47.712;9.400;2022-10-17T07:28:11;11.00;99.90
5850;DHT22;2951;47.712;9.400;2022-10-17T07:30:37;11.00;99.90
5850;DHT22;2951;47.712;9.400;2022-10-17T07:33:04;11.10;99.90
5850;DHT22;2951;47.712;9.400;2022-10-17T07:35:31;11.20;99.90
5850;DHT22;2951;47.712;9.400;2022-10-17T07:37:58;11.20;99.90
5850;DHT22;2951;47.712;9.400;2022-10-17T07:40:25;11.20;99.90
5850;DHT22;2951;47.712;9.400;2022-10-17T07:42:52;11.20;99.90
5850;DHT22;2951;47.712;9.400;2022-10-17T07:45:18;11.20;99.90
5850;DHT22;2951;47.712;9.400;2022-10-17T07:47:45;11.20;99.90
5850;DHT22;2951;47.712;9.400;2022-10-17T07:50:12;11.30;99.90
5850;DHT22;2951;47.712;9.400;2022-10-17T07:52:38;11.40;99.90
5850;DHT22;2951;47.712;9.400;2022-10-17T07:55:05;11.60;99.90
5850;DHT22;2951;47.712;9.400;2022-10-17T07:57:33;11.80;99.90
5850;DHT22;2951;47.712;9.400;2022-10-17T07:59:59;11.90;99.90
5850;DHT22;2951;47.712;9.400;2022-10-17T08:02:26;12.00;99.90
5850;DHT22;2951;47.712;9.400;2022-10-17T08:04:53;12.10;99.90
5850;DHT22;2951;47.712;9.400;2022-10-17T08:07:20;12.10;99.90
5850;DHT22;2951;47.712;9.400;2022-10-17T08:09:52;12.20;99.90
5850;DHT22;2951;47.712;9.400;2022-10-17T08:12:19;12.20;99.90
5850;DHT22;2951;47.712;9.400;2022-10-17T08:14:46;12.30;99.90
5850;DHT22;2951;47.712;9.400;2022-10-17T08:17:13;12.30;99.90
5850;DHT22;2951;47.712;9.400;2022-10-17T08:19:40;12.40;99.90
5850;DHT22;2951;47.712;9.400;2022-10-17T08:22:06;12.50;99.90
5850;DHT22;2951;47.712;9.400;2022-10-17T08:24:33;12.60;99.90
5850;DHT22;2951;47.712;9.400;2022-10-17T08:27:00;12.70;99.90
5850;DHT22;2951;47.712;9.400;2022-10-17T08:29:27;12.90;99.90
5850;DHT22;2951;47.712;9.400;2022-10-17T08:31:53;13.00;99.90
5850;DHT22;2951;47.712;9.400;2022-10-17T08:34:26;13.10;99.90
5850;DHT22;2951;47.712;9.400;2022-10-17T08:36:53;13.20;99.90
5850;DHT22;2951;47.712;9.400;2022-10-17T08:39:19;13.30;99.90
5850;DHT22;2951;47.712;9.400;2022-10-17T08:46:43;13.60;99.90
5850;DHT22;2951;47.712;9.400;2022-10-17T08:49:36;13.70;99.90
5850;DHT22;2951;47.712;9.400;2022-10-17T08:51:58;13.90;99.90
5850;DHT22;2951;47.712;9.400;2022-10-17T08:54:39;13.90;99.90
5850;DHT22;2951;47.712;9.400;2022-10-17T08:57:13;14.00;99.90
5850;DHT22;2951;47.712;9.400;2022-10-17T08:59:41;14.10;99.90
5850;DHT22;2951;47.712;9.400;2022-10-17T09:04:47;14.30;99.90
5850;DHT22;2951;47.712;9.400;2022-10-17T09:09:55;14.40;99.90
5850;DHT22;2951;47.712;9.400;2022-10-17T09:12:35;14.50;99.90
5850;DHT22;2951;47.712;9.400;2022-10-17T09:15:15;14.60;99.90
5850;DHT22;2951;47.712;9.400;2022-10-17T09:17:56;14.80;99.90
5850;DHT22;2951;47.712;9.400;2022-10-17T09:20:24;14.80;99.90
5850;DHT22;2951;47.712;9.400;2022-10-17T09:22:59;14.90;99.90
5850;DHT22;2951;47.712;9.400;2022-10-17T09:25:26;15.00;99.90
5850;DHT22;2951;47.712;9.400;2022-10-17T09:30:46;15.10;99.90
5850;DHT22;2951;47.712;9.400;2022-10-17T09:33:20;15.10;99.90
5850;DHT22;2951;47.712;9.400;2022-10-17T09:36:00;15.10;99.90
5850;DHT22;2951;47.712;9.400;2022-10-17T09:38:38;15.20;99.90
5850;DHT22;2951;47.712;9.400;2022-10-17T09:41:08;15.30;99.90
5850;DHT22;2951;47.712;9.400;2022-10-17T09:44:07;15.40;99.90
5850;DHT22;2951;47.712;9.400;2022-10-17T09:46:37;15.50;99.90
5850;DHT22;2951;47.712;9.400;2022-10-17T09:49:16;15.70;99.90
5850;DHT22;2951;47.712;9.400;2022-10-17T09:51:43;15.80;99.90
5850;DHT22;2951;47.712;9.400;2022-10-17T09:54:18;15.90;99.90
5850;DHT22;2951;47.712;9.400;2022-10-17T10:07:31;15.90;99.90
5850;DHT22;2951;47.712;9.400;2022-10-17T10:09:58;15.90;99.90
5850;DHT22;2951;47.712;9.400;2022-10-17T10:12:27;15.90;99.90
5850;DHT22;2951;47.712;9.400;2022-10-17T10:14:54;16.00;99.90
5850;DHT22;2951;47.712;9.400;2022-10-17T10:19:54;16.20;99.90
5850;DHT22;2951;47.712;9.400;2022-10-17T10:22:21;16.30;99.90
5850;DHT22;2951;47.712;9.400;2022-10-17T10:27:35;16.30;99.90
5850;DHT22;2951;47.712;9.400;2022-10-17T10:30:04;16.40;99.90
5850;DHT22;2951;47.712;9.400;2022-10-17T10:32:32;16.50;99.90
5850;DHT22;2951;47.712;9.400;2022-10-17T10:35:22;16.60;99.90
5850;DHT22;2951;47.712;9.400;2022-10-17T10:37:48;16.60;99.90
5850;DHT22;2951;47.712;9.400;2022-10-17T10:40:25;16.60;99.90
5850;DHT22;2951;47.712;9.400;2022-10-17T10:42:54;16.70;99.90
5850;DHT22;2951;47.712;9.400;2022-10-17T10:45:27;16.80;99.90
5850;DHT22;2951;47.712;9.400;2022-10-17T10:48:20;16.90;99.90
5850;DHT22;2951;47.712;9.400;2022-10-17T10:50:58;16.90;99.90
5850;DHT22;2951;47.712;9.400;2022-10-17T10:53:40;17.00;99.90
5850;DHT22;2951;47.712;9.400;2022-10-17T10:56:18;17.00;99.90
5850;DHT22;2951;47.712;9.400;2022-10-17T11:01:18;17.20;99.90
5850;DHT22;2951;47.712;9.400;2022-10-17T11:03:52;17.20;99.90
5850;DHT22;2951;47.712;9.400;2022-10-17T11:06:27;17.10;99.90
5850;DHT22;2951;47.712;9.400;2022-10-17T11:09:03;17.20;99.90
5850;DHT22;2951;47.712;9.400;2022-10-17T11:11:33;17.20;99.90
5850;DHT22;2951;47.712;9.400;2022-10-17T11:14:17;17.40;99.90
5850;DHT22;2951;47.712;9.400;2022-10-17T11:16:47;17.40;99.90
5850;DHT22;2951;47.712;9.400;2022-10-17T11:19:17;17.50;99.90
5850;DHT22;2951;47.712;9.400;2022-10-17T11:22:10;17.60;99.90
5850;DHT22;2951;47.712;9.400;2022-10-17T11:24:36;17.80;99.90
5850;DHT22;2951;47.712;9.400;2022-10-17T11:27:04;17.90;99.90
5850;DHT22;2951;47.712;9.400;2022-10-17T11:29:32;18.00;99.90
5850;DHT22;2951;47.712;9.400;2022-10-17T11:32:01;18.10;99.90
5850;DHT22;2951;47.712;9.400;2022-10-17T11:34:30;18.20;99.90
5850;DHT22;2951;47.712;9.400;2022-10-17T11:37:09;18.30;99.90
5850;DHT22;2951;47.712;9.400;2022-10-17T11:39:48;18.40;99.90
5850;DHT22;2951;47.712;9.400;2022-10-17T11:42:21;18.50;99.90
5850;DHT22;2951;47.712;9.400;2022-10-17T11:44:52;18.60;99.90
5850;DHT22;2951;47.712;9.400;2022-10-17T11:50:15;18.60;99.90
5850;DHT22;2951;47.712;9.400;2022-10-17T11:53:07;18.70;99.90
5850;DHT22;2951;47.712;9.400;2022-10-17T11:55:34;18.70;99.90
5850;DHT22;2951;47.712;9.400;2022-10-17T11:58:24;18.70;99.90
5850;DHT22;2951;47.712;9.400;2022-10-17T12:03:47;18.70;99.90
5850;DHT22;2951;47.712;9.400;2022-10-17T12:08:57;18.60;99.90
5850;DHT22;2951;47.712;9.400;2022-10-17T12:16:50;18.50;99.90
5850;DHT22;2951;47.712;9.400;2022-10-17T12:22:04;18.40;99.90
5850;DHT22;2951;47.712;9.400;2022-10-17T12:24:33;18.60;99.90
5850;DHT22;2951;47.712;9.400;2022-10-17T12:27:20;18.60;99.90
5850;DHT22;2951;47.712;9.400;2022-10-17T12:29:46;18.70;99.90
5850;DHT22;2951;47.712;9.400;2022-10-17T12:32:13;18.80;99.90
5850;DHT22;2951;47.712;9.400;2022-10-17T12:34:49;18.90;99.90
5850;DHT22;2951;47.712;9.400;2022-10-17T12:37:36;19.00;99.90
5850;DHT22;2951;47.712;9.400;2022-10-17T12:40:03;19.20;99.90
5850;DHT22;2951;47.712;9.400;2022-10-17T12:42:50;19.30;99.90
5850;DHT22;2951;47.712;9.400;2022-10-17T12:48:02;19.60;99.90
5850;DHT22;2951;47.712;9.400;2022-10-17T12:53:14;19.60;99.90
5850;DHT22;2951;47.712;9.400;2022-10-17T12:55:44;19.70;99.90
5850;DHT22;2951;47.712;9.400;2022-10-17T12:58:11;19.70;99.90
5850;DHT22;2951;47.712;9.400;2022-10-17T13:00:52;19.70;99.90
5850;DHT22;2951;47.712;9.400;2022-10-17T13:03:41;19.90;99.90
5850;DHT22;2951;47.712;9.400;2022-10-17T13:06:14;20.00;99.90
5850;DHT22;2951;47.712;9.400;2022-10-17T13:08:43;20.00;99.90
5850;DHT22;2951;47.712;9.400;2022-10-17T13:11:13;20.10;99.90
5850;DHT22;2951;47.712;9.400;2022-10-17T13:13:41;20.10;99.90
5850;DHT22;2951;47.712;9.400;2022-10-17T13:16:08;20.20;99.90
5850;DHT22;2951;47.712;9.400;2022-10-17T13:18:52;20.30;99.90
5850;DHT22;2951;47.712;9.400;2022-10-17T13:21:19;20.40;99.90
5850;DHT22;2951;47.712;9.400;2022-10-17T13:23:46;20.40;99.90
5850;DHT22;2951;47.712;9.400;2022-10-17T13:26:17;20.40;99.90
5850;DHT22;2951;47.712;9.400;2022-10-17T13:31:30;20.60;99.90
5850;DHT22;2951;47.712;9.400;2022-10-17T13:33:58;20.80;99.90
5850;DHT22;2951;47.712;9.400;2022-10-17T13:36:25;20.80;99.90
5850;DHT22;2951;47.712;9.400;2022-10-17T13:38:52;20.90;99.90
5850;DHT22;2951;47.712;9.400;2022-10-17T13:41:22;20.80;99.90
5850;DHT22;2951;47.712;9.400;2022-10-17T13:44:02;20.60;99.90
5850;DHT22;2951;47.712;9.400;2022-10-17T13:46:31;20.50;99.90
5850;DHT22;2951;47.712;9.400;2022-10-17T13:49:38;20.50;99.90
5850;DHT22;2951;47.712;9.400;2022-10-17T13:51:59;20.70;99.90
5850;DHT22;2951;47.712;9.400;2022-10-17T13:54:40;21.00;99.90
5850;DHT22;2951;47.712;9.400;2022-10-17T13:59:42;22.00;99.90
5850;DHT22;2951;47.712;9.400;2022-10-17T14:02:14;21.90;99.90
5850;DHT22;2951;47.712;9.400;2022-10-17T14:04:41;22.10;99.90
5850;DHT22;2951;47.712;9.400;2022-10-17T14:07:36;21.80;99.90
5850;DHT22;2951;47.712;9.400;2022-10-17T14:10:24;21.70;99.90
5850;DHT22;2951;47.712;9.400;2022-10-17T14:12:52;21.90;99.90
5850;DHT22;2951;47.712;9.400;2022-10-17T14:15:20;22.20;99.90
5850;DHT22;2951;47.712;9.400;2022-10-17T14:17:52;22.00;99.90
5850;DHT22;2951;47.712;9.400;2022-10-17T14:20:20;22.40;99.90
5850;DHT22;2951;47.712;9.400;2022-10-17T14:28:32;23.20;99.90
5850;DHT22;2951;47.712;9.400;2022-10-17T14:33:43;22.80;99.90
5850;DHT22;2951;47.712;9.400;2022-10-17T14:36:15;22.50;99.90
5850;DHT22;2951;47.712;9.400;2022-10-17T14:38:43;22.30;99.90
5850;DHT22;2951;47.712;9.400;2022-10-17T14:44:05;23.20;99.90
5850;DHT22;2951;47.712;9.400;2022-10-17T14:46:35;24.10;99.90
5850;DHT22;2951;47.712;9.400;2022-10-17T14:49:07;24.00;99.90
5850;DHT22;2951;47.712;9.400;2022-10-17T14:51:39;24.10;99.90
5850;DHT22;2951;47.712;9.400;2022-10-17T14:54:18;23.80;99.90
5850;DHT22;2951;47.712;9.400;2022-10-17T14:56:48;23.70;99.90
5850;DHT22;2951;47.712;9.400;2022-10-17T14:59:15;23.70;99.90
5850;DHT22;2951;47.712;9.400;2022-10-17T15:02:01;24.00;99.90
5850;DHT22;2951;47.712;9.400;2022-10-17T15:04:27;23.90;99.90
5850;DHT22;2951;47.712;9.400;2022-10-17T15:06:54;23.20;99.90
5850;DHT22;2951;47.712;9.400;2022-10-17T15:09:21;23.20;99.90
5850;DHT22;2951;47.712;9.400;2022-10-17T15:11:49;23.10;99.90
5850;DHT22;2951;47.712;9.400;2022-10-17T15:14:16;22.80;99.90
5850;DHT22;2951;47.712;9.400;2022-10-17T15:16:42;22.30;99.90
5850;DHT22;2951;47.712;9.400;2022-10-17T15:19:09;22.00;99.90
5850;DHT22;2951;47.712;9.400;2022-10-17T15:21:37;21.70;99.90
5850;DHT22;2951;47.712;9.400;2022-10-17T15:24:08;21.00;99.90
5850;DHT22;2951;47.712;9.400;2022-10-17T15:26:35;20.80;99.90
5850;DHT22;2951;47.712;9.400;2022-10-17T15:29:02;20.80;99.90
5850;DHT22;2951;47.712;9.400;2022-10-17T15:31:29;21.30;99.90
5850;DHT22;2951;47.712;9.400;2022-10-17T15:33:59;21.10;99.90
5850;DHT22;2951;47.712;9.400;2022-10-17T15:36:29;21.60;99.90
5850;DHT22;2951;47.712;9.400;2022-10-17T15:38:57;21.60;99.90
5850;DHT22;2951;47.712;9.400;2022-10-17T15:41:24;21.40;99.90
5850;DHT22;2951;47.712;9.400;2022-10-17T15:43:51;21.80;99.90
5850;DHT22;2951;47.712;9.400;2022-10-17T15:46:19;22.20;99.90
5850;DHT22;2951;47.712;9.400;2022-10-17T15:48:47;22.10;99.90
5850;DHT22;2951;47.712;9.400;2022-10-17T15:51:13;22.20;99.90
5850;DHT22;2951;47.712;9.400;2022-10-17T15:53:40;22.10;99.90
5850;DHT22;2951;47.712;9.400;2022-10-17T15:56:07;21.70;99.90
5850;DHT22;2951;47.712;9.400;2022-10-17T15:58:37;21.70;99.90
5850;DHT22;2951;47.712;9.400;2022-10-17T16:01:06;21.30;99.90
5850;DHT22;2951;47.712;9.400;2022-10-17T16:03:33;21.10;99.90
5850;DHT22;2951;47.712;9.400;2022-10-17T16:05:59;20.40;99.90
5850;DHT22;2951;47.712;9.400;2022-10-17T16:08:26;20.10;99.90
5850;DHT22;2951;47.712;9.400;2022-10-17T16:10:53;19.80;99.90
5850;DHT22;2951;47.712;9.400;2022-10-17T16:13:21;19.50;99.90
5850;DHT22;2951;47.712;9.400;2022-10-17T16:15:48;19.20;99.90
5850;DHT22;2951;47.712;9.400;2022-10-17T16:18:15;19.00;99.90
5850;DHT22;2951;47.712;9.400;2022-10-17T16:20:42;18.80;99.90
5850;DHT22;2951;47.712;9.400;2022-10-17T16:23:09;18.60;99.90
5850;DHT22;2951;47.712;9.400;2022-10-17T16:25:36;18.40;99.90
5850;DHT22;2951;47.712;9.400;2022-10-17T16:28:05;18.20;99.90
5850;DHT22;2951;47.712;9.400;2022-10-17T16:30:42;18.00;99.90
5850;DHT22;2951;47.712;9.400;2022-10-17T16:33:10;17.90;99.90
5850;DHT22;2951;47.712;9.400;2022-10-17T16:35:37;17.70;99.90
5850;DHT22;2951;47.712;9.400;2022-10-17T16:38:05;17.50;99.90
5850;DHT22;2951;47.712;9.400;2022-10-17T16:40:31;17.40;99.90
5850;DHT22;2951;47.712;9.400;2022-10-17T16:42:58;17.30;99.90
5850;DHT22;2951;47.712;9.400;2022-10-17T16:45:25;17.10;99.90
5850;DHT22;2951;47.712;9.400;2022-10-17T16:47:51;17.00;99.90
5850;DHT22;2951;47.712;9.400;2022-10-17T16:50:19;16.90;99.90
5850;DHT22;2951;47.712;9.400;2022-10-17T16:52:46;16.80;99.90
5850;DHT22;2951;47.712;9.400;2022-10-17T16:55:12;16.70;99.90
5850;DHT22;2951;47.712;9.400;2022-10-17T16:57:41;16.60;99.90
5850;DHT22;2951;47.712;9.400;2022-10-17T17:00:13;16.50;99.90
5850;DHT22;2951;47.712;9.400;2022-10-17T17:02:40;16.40;99.90
5850;DHT22;2951;47.712;9.400;2022-10-17T17:05:07;16.40;99.90
5850;DHT22;2951;47.712;9.400;2022-10-17T17:07:34;16.30;99.90
5850;DHT22;2951;47.712;9.400;2022-10-17T17:10:00;16.20;99.90
5850;DHT22;2951;47.712;9.400;2022-10-17T17:12:27;16.20;99.90
5850;DHT22;2951;47.712;9.400;2022-10-17T17:14:54;16.10;99.90
5850;DHT22;2951;47.712;9.400;2022-10-17T17:17:20;16.00;99.90
5850;DHT22;2951;47.712;9.400;2022-10-17T17:19:56;16.00;99.90
5850;DHT22;2951;47.712;9.400;2022-10-17T17:22:22;15.90;99.90
5850;DHT22;2951;47.712;9.400;2022-10-17T17:24:49;15.90;99.90
5850;DHT22;2951;47.712;9.400;2022-10-17T17:27:16;15.70;99.90
5850;DHT22;2951;47.712;9.400;2022-10-17T17:29:42;15.60;99.90
5850;DHT22;2951;47.712;9.400;2022-10-17T17:32:09;15.60;99.90
5850;DHT22;2951;47.712;9.400;2022-10-17T17:34:36;15.50;99.90
5850;DHT22;2951;47.712;9.400;2022-10-17T17:37:03;15.50;99.90
5850;DHT22;2951;47.712;9.400;2022-10-17T17:39:29;15.50;99.90
5850;DHT22;2951;47.712;9.400;2022-10-17T17:41:56;15.50;99.90
5850;DHT22;2951;47.712;9.400;2022-10-17T17:44:23;15.50;99.90
5850;DHT22;2951;47.712;9.400;2022-10-17T17:46:49;15.40;99.90
5850;DHT22;2951;47.712;9.400;2022-10-17T17:49:16;15.40;99.90
5850;DHT22;2951;47.712;9.400;2022-10-17T17:51:43;15.40;99.90
5850;DHT22;2951;47.712;9.400;2022-10-17T17:54:12;15.30;99.90
5850;DHT22;2951;47.712;9.400;2022-10-17T17:56:38;15.30;99.90
5850;DHT22;2951;47.712;9.400;2022-10-17T17:59:05;15.30;99.90